Daysland, Canada
Current Conditions -  °F | °C
As of 7:00 PM on Thursday 20 Nov 2014 (Local Time) from CYEG Reporting Station
Overcast Overcast  
Wind Chill: 34°   Ceiling: 8300
Heat Index: 34°   Visibility: 15mi
Dew Point: 30°   Wind: 3mph
Humidity: 87%   Direction: 200°SSW
Pressure: 29.51"   Gusts: NA
Location:  52.87°N, 112.25°W
Report Text: CYEG 210200Z 20003KT 15SM FEW070 OVC083 01/M01 A2951 RMK AC2AC6 VIRGA SLP031
Loading
Personal Weather Stations






























Interactive Weather Map New forecast layout! Learn more

10-Day Weather Forecast

Advertisements
Track Severe Weather on mobile